createdAt,value
2022-08-14T00:00:32.673Z,13.17
2022-08-14T00:01:32.685Z,13.10
2022-08-14T00:02:32.701Z,13.13
2022-08-14T00:03:32.636Z,12.96
2022-08-14T00:04:35.528Z,13.10
2022-08-14T00:05:33.704Z,13.21
2022-08-14T00:06:32.598Z,13.25
2022-08-14T00:07:32.623Z,13.12
2022-08-14T00:08:44.458Z,13.14
2022-08-14T00:09:33.564Z,13.09
2022-08-14T00:10:51.492Z,13.10
2022-08-14T00:11:33.582Z,13.14
2022-08-14T00:12:34.127Z,13.27
2022-08-14T00:13:33.528Z,13.43
2022-08-14T00:14:32.510Z,13.41
2022-08-14T00:15:43.609Z,13.61
2022-08-14T00:16:41.291Z,13.53
2022-08-14T00:17:37.932Z,13.46
2022-08-14T00:19:05.651Z,13.48
2022-08-14T00:19:33.458Z,13.43
2022-08-14T00:20:41.150Z,13.44
2022-08-14T00:21:33.457Z,13.41
2022-08-14T00:22:56.225Z,13.46
2022-08-14T00:23:33.447Z,13.27
2022-08-14T00:24:32.420Z,13.47
2022-08-14T00:25:42.165Z,13.35
2022-08-14T00:26:33.467Z,13.27
2022-08-14T00:27:37.882Z,13.25
2022-08-14T00:28:34.895Z,13.16
2022-08-14T00:29:33.114Z,13.27
2022-08-14T00:30:33.339Z,13.17
2022-08-14T00:31:44.083Z,13.14
2022-08-14T00:33:01.577Z,13.12
2022-08-14T00:33:50.802Z,13.19
2022-08-14T00:34:37.062Z,13.21
2022-08-14T00:36:37.431Z,13.14
2022-08-14T00:36:39.320Z,13.25
2022-08-14T00:37:33.266Z,13.14
2022-08-14T00:38:34.896Z,13.22
2022-08-14T00:39:32.326Z,13.22
2022-08-14T00:40:35.582Z,13.22
2022-08-14T00:41:32.222Z,13.13
2022-08-14T00:42:54.919Z,13.13
2022-08-14T00:43:33.194Z,13.03
2022-08-14T00:44:33.272Z,13.13
2022-08-14T00:45:32.279Z,13.07
2022-08-14T00:46:33.437Z,13.04
2022-08-14T00:47:32.195Z,13.09
2022-08-14T00:48:34.611Z,13.13
2022-08-14T00:49:38.232Z,13.06
2022-08-14T00:50:33.143Z,13.16
2022-08-14T00:51:38.090Z,13.09
2022-08-14T00:52:33.101Z,13.07
2022-08-14T00:53:32.120Z,13.22
2022-08-14T00:54:32.116Z,13.09
2022-08-14T00:55:32.082Z,12.96
2022-08-14T00:56:32.058Z,12.98
2022-08-14T00:57:32.045Z,13.01
2022-08-14T00:58:33.137Z,13.01
2022-08-14T00:59:32.047Z,12.95
2022-08-14T01:00:37.364Z,12.95
2022-08-14T01:01:33.032Z,12.88
2022-08-14T01:02:32.374Z,12.81
2022-08-14T01:03:31.991Z,12.87
2022-08-14T01:04:51.313Z,12.99
2022-08-14T01:05:51.089Z,12.92
2022-08-14T01:06:34.427Z,12.94
2022-08-14T01:07:38.551Z,12.92
2022-08-14T01:08:51.382Z,13.03
2022-08-14T01:09:32.955Z,12.96
2022-08-14T01:10:38.293Z,13.01
2022-08-14T01:11:35.548Z,12.98
2022-08-14T01:12:31.890Z,12.95
2022-08-14T01:13:42.293Z,13.07
2022-08-14T01:14:32.878Z,12.96
2022-08-14T01:15:57.493Z,13.06
2022-08-14T01:16:32.848Z,12.98
2022-08-14T01:17:31.827Z,12.92
2022-08-14T01:18:31.815Z,12.81
2022-08-14T01:19:31.923Z,12.98
2022-08-14T01:20:31.794Z,12.85
2022-08-14T01:21:31.783Z,12.92
2022-08-14T01:22:31.836Z,12.87
2022-08-14T01:23:41.772Z,12.71
2022-08-14T01:24:34.468Z,12.67
2022-08-14T01:25:31.739Z,12.70
2022-08-14T01:26:34.536Z,12.59
2022-08-14T01:27:31.711Z,12.69
2022-08-14T01:28:46.537Z,12.66
2022-08-14T01:29:58.113Z,12.63
2022-08-14T01:30:38.278Z,12.55
2022-08-14T01:31:32.670Z,12.71
2022-08-14T01:32:31.663Z,12.73
2022-08-14T01:33:52.196Z,12.91
2022-08-14T01:35:20.774Z,12.96
2022-08-14T01:36:05.157Z,12.94
2022-08-14T01:36:32.634Z,12.89
2022-08-14T01:37:31.668Z,12.88
2022-08-14T01:38:31.602Z,12.92
2022-08-14T01:39:32.198Z,12.87
2022-08-14T01:40:32.999Z,12.92
2022-08-14T01:41:31.710Z,12.70
2022-08-14T01:42:36.203Z,12.71
2022-08-14T01:43:31.542Z,12.77
2022-08-14T01:44:33.690Z,12.85
2022-08-14T01:45:40.828Z,12.77
2022-08-14T01:46:33.531Z,12.84
2022-08-14T01:47:37.144Z,12.89
2022-08-14T01:48:32.507Z,12.87
2022-08-14T01:49:35.433Z,12.96
2022-08-14T01:50:33.704Z,12.88
2022-08-14T01:51:31.449Z,12.94
2022-08-14T01:52:57.642Z,12.94
2022-08-14T01:53:35.677Z,12.91
2022-08-14T01:54:37.968Z,12.92
2022-08-14T01:55:32.793Z,12.95
2022-08-14T01:56:31.401Z,13.03
2022-08-14T01:57:49.483Z,12.89
2022-08-14T01:58:32.382Z,12.99
2022-08-14T01:59:31.703Z,12.92
2022-08-14T02:00:36.162Z,12.95
2022-08-14T02:01:31.384Z,12.96
2022-08-14T02:02:36.731Z,12.99
2022-08-14T02:03:32.330Z,12.96
2022-08-14T02:04:40.889Z,13.01
2022-08-14T02:05:38.068Z,12.95
2022-08-14T02:06:33.756Z,12.98
2022-08-14T02:07:44.675Z,12.91
2022-08-14T02:08:35.643Z,12.89
2022-08-14T02:09:31.900Z,12.91
2022-08-14T02:10:31.247Z,12.87
2022-08-14T02:11:32.234Z,12.92
2022-08-14T02:12:31.313Z,12.77
2022-08-14T02:13:31.232Z,12.77
2022-08-14T02:14:32.110Z,12.85
2022-08-14T02:15:31.191Z,12.87
2022-08-14T02:16:31.185Z,12.88
2022-08-14T02:17:31.185Z,12.81
2022-08-14T02:18:32.577Z,12.85
2022-08-14T02:19:32.214Z,12.85
2022-08-14T02:20:31.141Z,12.77
2022-08-14T02:21:31.140Z,12.88
2022-08-14T02:22:33.208Z,12.77
2022-08-14T02:23:36.359Z,12.77
2022-08-14T02:24:39.797Z,12.77
2022-08-14T02:25:32.096Z,12.73
2022-08-14T02:26:31.127Z,12.44
2022-08-14T02:28:24.750Z,12.43
2022-08-14T02:28:58.028Z,12.44
2022-08-14T02:29:59.546Z,12.40
2022-08-14T02:30:32.030Z,12.23
2022-08-14T02:31:42.581Z,12.21
2022-08-14T02:32:37.310Z,12.26
2022-08-14T02:33:33.521Z,12.26
2022-08-14T02:34:31.011Z,12.26
2022-08-14T02:35:32.735Z,12.21
2022-08-14T02:37:06.391Z,12.26
2022-08-14T02:37:47.115Z,12.18
2022-08-14T02:38:34.998Z,12.30
2022-08-14T02:39:31.024Z,12.38
2022-08-14T02:40:32.131Z,12.41
2022-08-14T02:41:35.039Z,12.48
2022-08-14T02:42:37.525Z,12.56
2022-08-14T02:43:36.457Z,12.56
2022-08-14T02:44:31.878Z,12.63
2022-08-14T02:45:33.538Z,12.59
2022-08-14T02:46:32.276Z,12.48
2022-08-14T02:47:30.846Z,12.48
2022-08-14T02:49:03.985Z,12.54
2022-08-14T02:49:34.210Z,12.49
2022-08-14T02:50:33.727Z,12.51
2022-08-14T02:51:30.849Z,12.44
2022-08-14T02:52:57.637Z,12.37
2022-08-14T02:53:33.367Z,12.41
2022-08-14T02:54:30.834Z,12.52
2022-08-14T02:55:30.756Z,12.43
2022-08-14T02:57:39.136Z,12.46
2022-08-14T02:57:40.785Z,12.40
2022-08-14T02:58:31.726Z,12.43
2022-08-14T02:59:33.900Z,12.40
2022-08-14T03:00:30.710Z,12.43
2022-08-14T03:01:31.189Z,12.46
2022-08-14T03:02:48.769Z,12.44
2022-08-14T03:03:31.999Z,12.55
2022-08-14T03:04:31.659Z,12.48
2022-08-14T03:05:35.950Z,12.46
2022-08-14T03:06:35.029Z,12.54
2022-08-14T03:07:31.626Z,12.54
2022-08-14T03:08:30.658Z,12.40
2022-08-14T03:10:24.649Z,12.38
2022-08-14T03:10:33.494Z,12.49
2022-08-14T03:11:34.661Z,12.49
2022-08-14T03:12:31.781Z,12.43
2022-08-14T03:13:30.574Z,12.51
2022-08-14T03:14:30.586Z,12.52
2022-08-14T03:15:30.554Z,12.44
2022-08-14T03:16:30.533Z,12.49
2022-08-14T03:17:32.014Z,12.46
2022-08-14T03:18:32.812Z,12.36
2022-08-14T03:19:30.515Z,12.44
2022-08-14T03:20:30.697Z,12.33
2022-08-14T03:21:30.489Z,12.36
2022-08-14T03:22:30.515Z,12.26
2022-08-14T03:23:30.459Z,12.31
2022-08-14T03:24:30.461Z,12.43
2022-08-14T03:25:30.476Z,12.34
2022-08-14T03:26:30.889Z,12.40
2022-08-14T03:27:35.373Z,12.41
2022-08-14T03:28:33.620Z,12.29
2022-08-14T03:29:30.403Z,12.34
2022-08-14T03:30:39.981Z,12.25
2022-08-14T03:31:31.398Z,12.38
2022-08-14T03:32:32.154Z,12.40
2022-08-14T03:33:38.324Z,12.43
2022-08-14T03:34:48.042Z,12.43
2022-08-14T03:35:39.921Z,12.29
2022-08-14T03:37:37.511Z,12.40
2022-08-14T03:39:10.958Z,12.41
2022-08-14T03:39:13.317Z,12.37
2022-08-14T03:39:31.318Z,12.37
2022-08-14T03:40:30.375Z,12.29
2022-08-14T03:41:33.255Z,12.36
2022-08-14T03:42:35.853Z,12.37
2022-08-14T03:43:32.471Z,12.41
2022-08-14T03:45:25.914Z,12.38
2022-08-14T03:45:34.857Z,12.54
2022-08-14T03:46:51.951Z,12.41
2022-08-14T03:47:46.183Z,12.41
2022-08-14T03:48:31.596Z,12.36
2022-08-14T03:49:31.194Z,12.30
2022-08-14T03:50:31.324Z,12.29
2022-08-14T03:51:30.178Z,12.29
2022-08-14T03:52:38.909Z,12.31
2022-08-14T03:53:31.266Z,12.36
2022-08-14T03:54:30.144Z,12.25
2022-08-14T03:55:30.506Z,12.29
2022-08-14T03:56:30.109Z,12.23
2022-08-14T03:57:30.092Z,12.36
2022-08-14T03:58:36.673Z,12.31
2022-08-14T03:59:31.067Z,12.26
2022-08-14T04:00:40.491Z,12.23
2022-08-14T04:01:39.196Z,12.25
2022-08-14T04:02:32.621Z,12.22
2022-08-14T04:03:31.073Z,12.31
2022-08-14T04:04:30.369Z,12.23
2022-08-14T04:05:42.565Z,12.30
2022-08-14T04:06:31.618Z,12.41
2022-08-14T04:07:32.880Z,12.43
2022-08-14T04:08:31.885Z,12.43
2022-08-14T04:09:30.107Z,12.40
2022-08-14T04:10:31.968Z,12.43
2022-08-14T04:11:29.942Z,12.46
2022-08-14T04:12:29.969Z,12.49
2022-08-14T04:13:31.868Z,12.48
2022-08-14T04:14:29.908Z,12.44
2022-08-14T04:15:29.921Z,12.40
2022-08-14T04:16:31.720Z,12.43
2022-08-14T04:17:30.795Z,12.40
2022-08-14T04:18:29.881Z,12.44
2022-08-14T04:19:33.054Z,12.40
2022-08-14T04:20:30.888Z,12.37
2022-08-14T04:21:30.789Z,12.38
2022-08-14T04:22:30.815Z,12.37
2022-08-14T04:23:32.901Z,12.30
2022-08-14T04:24:29.811Z,12.40
2022-08-14T04:25:29.792Z,12.38
2022-08-14T04:26:42.336Z,12.46
2022-08-14T04:27:30.778Z,12.51
2022-08-14T04:29:07.369Z,12.46
2022-08-14T04:29:30.761Z,12.54
2022-08-14T04:30:32.756Z,12.51
2022-08-14T04:32:57.683Z,12.54
2022-08-14T04:32:59.141Z,12.38
2022-08-14T04:33:30.734Z,12.58
2022-08-14T04:34:29.792Z,12.48
2022-08-14T04:35:55.143Z,12.48
2022-08-14T04:36:30.678Z,12.52
2022-08-14T04:37:30.661Z,12.51
2022-08-14T04:38:37.013Z,12.54
2022-08-14T04:39:30.684Z,12.58
2022-08-14T04:40:29.633Z,12.52
2022-08-14T04:41:30.535Z,12.43
2022-08-14T04:42:29.603Z,12.46
2022-08-14T04:43:32.507Z,12.43
2022-08-14T04:44:36.958Z,12.36
2022-08-14T04:45:30.584Z,12.54
2022-08-14T04:46:56.315Z,12.55
2022-08-14T04:47:30.848Z,12.44
2022-08-14T04:48:39.345Z,12.29
2022-08-14T04:49:30.545Z,12.36
2022-08-14T04:50:43.739Z,12.44
2022-08-14T04:51:46.334Z,12.41
2022-08-14T04:52:30.492Z,12.46
2022-08-14T04:53:35.598Z,12.48
2022-08-14T04:54:30.479Z,12.48
2022-08-14T04:55:29.476Z,12.51
2022-08-14T04:56:34.291Z,12.51
2022-08-14T04:57:30.446Z,12.55
2022-08-14T04:58:32.293Z,12.56
2022-08-14T04:59:29.420Z,12.46
2022-08-14T05:00:29.407Z,12.51
2022-08-14T05:01:29.543Z,12.44
2022-08-14T05:02:30.436Z,12.48
2022-08-14T05:03:29.380Z,12.58
2022-08-14T05:04:29.399Z,12.54
2022-08-14T05:05:29.359Z,12.55
2022-08-14T05:06:35.081Z,12.56
2022-08-14T05:07:46.607Z,12.56
2022-08-14T05:08:32.430Z,12.59
2022-08-14T05:09:30.595Z,12.69
2022-08-14T05:10:32.344Z,12.71
2022-08-14T05:11:29.289Z,12.77
2022-08-14T05:13:12.602Z,12.80
2022-08-14T05:13:38.356Z,12.95
2022-08-14T05:14:43.000Z,13.10
2022-08-14T05:15:32.076Z,13.27
2022-08-14T05:16:29.256Z,13.31
2022-08-14T05:17:43.617Z,13.38
2022-08-14T05:19:18.890Z,13.43
2022-08-14T05:19:31.990Z,13.53
2022-08-14T05:21:55.228Z,13.69
2022-08-14T05:22:00.102Z,14.04
2022-08-14T05:22:30.174Z,14.27
2022-08-14T05:23:29.183Z,14.54
2022-08-14T05:24:29.180Z,14.97
2022-08-14T05:25:31.039Z,15.31
2022-08-14T05:26:29.184Z,15.19
2022-08-14T05:27:31.058Z,15.49
2022-08-14T05:28:29.133Z,15.85
2022-08-14T05:29:29.112Z,16.13
2022-08-14T05:30:29.083Z,16.23
2022-08-14T05:31:39.477Z,16.55
2022-08-14T05:32:30.086Z,16.81
2022-08-14T05:33:29.065Z,16.75
2022-08-14T05:34:29.055Z,16.96
2022-08-14T05:35:29.040Z,17.14
2022-08-14T05:36:29.027Z,17.38
2022-08-14T05:37:29.881Z,17.42
2022-08-14T05:38:31.114Z,17.22
2022-08-14T05:39:29.036Z,17.12
2022-08-14T05:40:28.977Z,16.98
2022-08-14T05:41:52.807Z,16.59
2022-08-14T05:42:32.132Z,16.33
2022-08-14T05:43:40.960Z,16.44
2022-08-14T05:44:30.973Z,16.16
2022-08-14T05:45:28.926Z,16.17
2022-08-14T05:46:28.925Z,16.04
2022-08-14T05:47:38.837Z,15.96
2022-08-14T05:48:33.635Z,15.62
2022-08-14T05:49:33.142Z,15.03
2022-08-14T05:50:29.883Z,15.01
2022-08-14T05:51:28.867Z,14.61
2022-08-14T05:52:39.345Z,14.38
2022-08-14T05:53:29.965Z,14.48
2022-08-14T05:54:31.371Z,14.64
2022-08-14T05:55:29.812Z,14.57
2022-08-14T05:56:29.179Z,14.66
2022-08-14T05:57:28.799Z,14.79
2022-08-14T05:58:40.998Z,15.15
2022-08-14T05:59:36.371Z,15.43
2022-08-14T06:00:31.692Z,15.30
2022-08-14T06:01:31.310Z,15.31
2022-08-14T06:02:28.741Z,15.34
2022-08-14T06:03:28.729Z,15.59
2022-08-14T06:04:28.721Z,15.80
2022-08-14T06:05:29.413Z,15.85
2022-08-14T06:06:28.694Z,16.16
2022-08-14T06:07:28.703Z,16.55
2022-08-14T06:08:36.527Z,16.75
2022-08-14T06:09:29.822Z,17.17
2022-08-14T06:10:29.742Z,17.39
2022-08-14T06:11:30.919Z,17.70
2022-08-14T06:13:00.178Z,17.95
2022-08-14T06:13:31.592Z,17.46
2022-08-14T06:14:29.604Z,17.03
2022-08-14T06:15:30.294Z,17.14
2022-08-14T06:16:28.585Z,17.32
2022-08-14T06:17:28.618Z,17.74
2022-08-14T06:18:31.982Z,17.94
2022-08-14T06:19:28.556Z,17.83
2022-08-14T06:20:28.781Z,17.63
2022-08-14T06:21:28.532Z,17.83
2022-08-14T06:22:28.530Z,17.94
2022-08-14T06:23:28.509Z,18.02
2022-08-14T06:24:30.783Z,18.09
2022-08-14T06:25:29.493Z,18.19
2022-08-14T06:26:30.451Z,18.25
2022-08-14T06:27:34.011Z,18.32
2022-08-14T06:28:29.471Z,18.50
2022-08-14T06:29:32.237Z,18.83
2022-08-14T06:30:30.407Z,18.60
2022-08-14T06:31:29.420Z,18.47
2022-08-14T06:32:37.916Z,18.59
2022-08-14T06:35:04.270Z,18.71
2022-08-14T06:35:09.553Z,18.54
2022-08-14T06:35:29.378Z,18.83
2022-08-14T06:36:28.386Z,18.69
2022-08-14T06:37:28.361Z,18.69
2022-08-14T06:38:28.351Z,18.66
2022-08-14T06:39:37.273Z,18.51
2022-08-14T06:40:29.458Z,18.31
2022-08-14T06:41:35.996Z,18.44
2022-08-14T06:42:33.041Z,18.26
2022-08-14T06:43:31.758Z,18.07
2022-08-14T06:44:32.367Z,18.11
2022-08-14T06:45:28.272Z,18.32
2022-08-14T06:46:34.135Z,18.78
2022-08-14T06:47:29.245Z,18.86
2022-08-14T06:48:28.272Z,18.74
2022-08-14T06:49:28.235Z,19.15
2022-08-14T06:50:30.049Z,19.38
2022-08-14T06:51:38.767Z,19.47
2022-08-14T06:52:29.457Z,19.47
2022-08-14T06:53:28.616Z,19.30
2022-08-14T06:54:31.119Z,19.28
2022-08-14T06:55:29.574Z,19.25
2022-08-14T06:56:28.180Z,19.46
2022-08-14T06:57:28.137Z,19.53
2022-08-14T06:58:28.894Z,19.52
2022-08-14T06:59:28.115Z,19.40
2022-08-14T07:00:31.123Z,19.40
2022-08-14T07:01:28.231Z,19.02
2022-08-14T07:02:28.695Z,18.84
2022-08-14T07:03:28.080Z,18.82
2022-08-14T07:04:28.077Z,18.84
2022-08-14T07:05:28.051Z,18.76
2022-08-14T07:06:46.907Z,18.97
2022-08-14T07:07:29.029Z,18.76
2022-08-14T07:08:29.493Z,19.02
2022-08-14T07:09:28.319Z,18.99
2022-08-14T07:10:29.098Z,19.39
2022-08-14T07:11:27.997Z,19.50
2022-08-14T07:12:34.900Z,19.57
2022-08-14T07:13:30.376Z,19.70
2022-08-14T07:14:27.957Z,19.64
2022-08-14T07:15:28.573Z,19.68
2022-08-14T07:16:27.955Z,19.60
2022-08-14T07:17:28.035Z,19.95
2022-08-14T07:18:27.953Z,19.94
2022-08-14T07:19:27.909Z,19.68
2022-08-14T07:20:31.327Z,19.75
2022-08-14T07:21:27.882Z,19.78
2022-08-14T07:22:32.940Z,19.82
2022-08-14T07:23:31.356Z,19.82
2022-08-14T07:24:31.395Z,19.72
2022-08-14T07:25:32.596Z,19.47
2022-08-14T07:26:29.511Z,19.68
2022-08-14T07:27:27.817Z,19.61
2022-08-14T07:28:28.799Z,20.19
2022-08-14T07:29:29.059Z,19.64
2022-08-14T07:30:34.244Z,19.78
2022-08-14T07:31:28.771Z,19.67
2022-08-14T07:32:34.015Z,19.76
2022-08-14T07:33:30.085Z,19.71
2022-08-14T07:34:36.438Z,19.70
2022-08-14T07:35:30.341Z,19.90
2022-08-14T07:36:30.637Z,20.34
2022-08-14T07:37:27.709Z,20.34
2022-08-14T07:38:31.997Z,20.56
2022-08-14T07:39:28.773Z,20.46
2022-08-14T07:40:29.919Z,20.50
2022-08-14T07:41:33.446Z,20.37
2022-08-14T07:42:28.648Z,20.15
2022-08-14T07:43:27.660Z,20.22
2022-08-14T07:44:32.753Z,20.50
2022-08-14T07:45:28.615Z,20.31
2022-08-14T07:46:28.643Z,20.35
2022-08-14T07:47:27.592Z,20.54
2022-08-14T07:48:27.584Z,20.38
2022-08-14T07:49:27.624Z,20.16
2022-08-14T07:50:27.561Z,20.17
2022-08-14T07:51:36.878Z,20.30
2022-08-14T07:52:30.898Z,20.51
2022-08-14T07:53:27.532Z,20.63
2022-08-14T07:54:29.984Z,20.57
2022-08-14T07:55:29.076Z,20.33
2022-08-14T07:56:46.725Z,20.81
2022-08-14T07:57:28.484Z,20.79
2022-08-14T07:58:33.830Z,21.13
2022-08-14T07:59:41.180Z,21.22
2022-08-14T08:00:30.973Z,21.01
2022-08-14T08:01:27.483Z,20.68
2022-08-14T08:02:27.470Z,20.88
2022-08-14T08:03:27.970Z,21.00
2022-08-14T08:04:27.478Z,21.28
2022-08-14T08:05:27.398Z,21.09
2022-08-14T08:06:27.655Z,21.00
2022-08-14T08:07:29.863Z,20.33
2022-08-14T08:08:27.714Z,20.05
2022-08-14T08:09:32.079Z,19.71
2022-08-14T08:10:46.743Z,20.15
2022-08-14T08:11:28.333Z,20.48
2022-08-14T08:12:40.386Z,20.63
2022-08-14T08:13:29.227Z,20.91
2022-08-14T08:14:27.331Z,20.54
2022-08-14T08:15:27.301Z,20.33
2022-08-14T08:16:27.334Z,20.15
2022-08-14T08:17:27.266Z,19.85
2022-08-14T08:18:29.237Z,19.85
2022-08-14T08:19:27.246Z,19.64
2022-08-14T08:20:28.276Z,19.50
2022-08-14T08:21:27.253Z,19.67
2022-08-14T08:22:28.294Z,19.60
2022-08-14T08:23:31.000Z,19.67
2022-08-14T08:24:28.213Z,19.94
2022-08-14T08:25:27.194Z,20.34
2022-08-14T08:26:27.170Z,20.61
2022-08-14T08:27:27.178Z,20.22
2022-08-14T08:28:27.203Z,20.46
2022-08-14T08:29:29.146Z,20.58
2022-08-14T08:30:27.191Z,20.96
2022-08-14T08:31:33.109Z,21.11
2022-08-14T08:32:30.022Z,21.15
2022-08-14T08:33:27.112Z,21.11
2022-08-14T08:34:28.115Z,21.08
2022-08-14T08:35:46.286Z,21.45
2022-08-14T08:36:29.841Z,21.56
2022-08-14T08:37:30.619Z,21.81
2022-08-14T08:39:16.525Z,21.89
2022-08-14T08:39:42.215Z,21.99
2022-08-14T08:40:31.047Z,21.73
2022-08-14T08:41:27.008Z,21.86
2022-08-14T08:42:31.641Z,21.73
2022-08-14T08:43:27.998Z,21.33
2022-08-14T08:44:32.992Z,21.31
2022-08-14T08:45:27.968Z,21.40
2022-08-14T08:46:26.978Z,21.71
2022-08-14T08:47:26.945Z,22.30
2022-08-14T08:48:31.839Z,22.14
2022-08-14T08:49:27.921Z,22.45
2022-08-14T08:50:31.874Z,22.33
2022-08-14T08:51:30.636Z,22.15
2022-08-14T08:52:31.171Z,22.42
2022-08-14T08:53:26.875Z,22.12
2022-08-14T08:54:31.030Z,22.11
2022-08-14T08:55:26.871Z,22.48
2022-08-14T08:56:30.759Z,22.56
2022-08-14T08:57:27.833Z,22.52
2022-08-14T08:58:26.923Z,22.38
2022-08-14T08:59:30.851Z,22.59
2022-08-14T09:00:27.034Z,22.84
2022-08-14T09:01:26.844Z,22.93
2022-08-14T09:02:27.683Z,22.79
2022-08-14T09:03:27.469Z,23.06
2022-08-14T09:04:26.772Z,22.96
2022-08-14T09:05:26.822Z,22.91
2022-08-14T09:07:00.184Z,22.78
2022-08-14T09:07:27.745Z,22.67
2022-08-14T09:08:31.194Z,22.63
2022-08-14T09:09:33.165Z,22.91
2022-08-14T09:10:27.726Z,22.81
2022-08-14T09:11:27.073Z,22.96
2022-08-14T09:12:26.871Z,22.93
2022-08-14T09:13:26.701Z,23.03
2022-08-14T09:14:26.675Z,22.35
2022-08-14T09:15:26.648Z,22.56
2022-08-14T09:16:27.663Z,22.42
2022-08-14T09:17:26.641Z,22.27
2022-08-14T09:18:26.629Z,22.17
2022-08-14T09:19:26.609Z,22.27
2022-08-14T09:20:30.618Z,22.49
2022-08-14T09:21:31.214Z,22.27
2022-08-14T09:22:35.427Z,22.23
2022-08-14T09:23:34.929Z,22.12
2022-08-14T09:24:36.302Z,22.35
2022-08-14T09:26:00.301Z,22.52
2022-08-14T09:26:28.600Z,22.60
2022-08-14T09:27:26.594Z,22.23
2022-08-14T09:28:26.508Z,22.49
2022-08-14T09:29:28.851Z,22.97
2022-08-14T09:30:32.405Z,23.18
2022-08-14T09:31:27.526Z,23.00
2022-08-14T09:32:57.811Z,23.04
2022-08-14T09:33:27.461Z,23.03
2022-08-14T09:34:27.260Z,23.29
2022-08-14T09:35:27.694Z,23.35
2022-08-14T09:36:26.422Z,23.52
2022-08-14T09:37:26.459Z,23.32
2022-08-14T09:38:27.351Z,23.01
2022-08-14T09:39:26.420Z,23.06
2022-08-14T09:40:26.376Z,23.42
2022-08-14T09:41:26.389Z,23.57
2022-08-14T09:42:33.325Z,23.54
2022-08-14T09:43:27.361Z,23.63
2022-08-14T09:44:26.375Z,23.82
2022-08-14T09:45:26.330Z,23.93
2022-08-14T09:46:26.342Z,23.87
2022-08-14T09:47:26.324Z,23.49
2022-08-14T09:48:27.768Z,23.31
2022-08-14T09:49:26.409Z,23.59
2022-08-14T09:50:26.869Z,23.63
2022-08-14T09:51:26.263Z,23.90
2022-08-14T09:52:33.740Z,24.53
2022-08-14T09:54:12.834Z,24.84
2022-08-14T09:54:27.225Z,24.79
2022-08-14T09:55:26.278Z,24.93
2022-08-14T09:56:30.408Z,24.86
2022-08-14T09:57:27.524Z,25.02
2022-08-14T09:58:26.186Z,25.12
2022-08-14T09:59:26.188Z,25.38
2022-08-14T10:00:29.341Z,25.41
2022-08-14T10:01:26.172Z,25.60
2022-08-14T10:02:28.422Z,25.27
2022-08-14T10:03:26.129Z,25.29
2022-08-14T10:04:34.573Z,25.17
2022-08-14T10:05:27.145Z,25.23
2022-08-14T10:06:28.240Z,25.69
2022-08-14T10:07:26.086Z,25.93
2022-08-14T10:08:26.912Z,25.75
2022-08-14T10:09:26.095Z,25.86
2022-08-14T10:10:27.049Z,26.27
2022-08-14T10:11:35.140Z,25.69
2022-08-14T10:12:28.982Z,24.90
2022-08-14T10:13:26.018Z,25.31
2022-08-14T10:14:34.808Z,25.12
2022-08-14T10:15:27.848Z,25.53
2022-08-14T10:16:33.108Z,25.86
2022-08-14T10:17:27.652Z,26.06
2022-08-14T10:18:26.961Z,25.96
2022-08-14T10:19:25.951Z,25.96
2022-08-14T10:20:40.622Z,26.03
2022-08-14T10:21:26.928Z,25.94
2022-08-14T10:23:15.142Z,25.57
2022-08-14T10:23:27.137Z,25.90
2022-08-14T10:24:36.412Z,26.12
2022-08-14T10:25:27.033Z,26.03
2022-08-14T10:26:28.419Z,25.60
2022-08-14T10:27:26.570Z,25.67
2022-08-14T10:29:03.955Z,25.19
2022-08-14T10:29:26.850Z,24.82
2022-08-14T10:30:26.323Z,24.66
2022-08-14T10:31:26.969Z,24.29
2022-08-14T10:32:29.147Z,24.04
2022-08-14T10:33:26.812Z,24.18
2022-08-14T10:34:33.318Z,24.18
2022-08-14T10:35:31.822Z,24.05
2022-08-14T10:36:37.110Z,24.27
2022-08-14T10:37:27.903Z,24.08
2022-08-14T10:38:25.785Z,24.06
2022-08-14T10:39:25.846Z,24.21
2022-08-14T10:40:38.803Z,24.80
2022-08-14T10:41:31.815Z,24.66
2022-08-14T10:42:26.704Z,24.79
2022-08-14T10:43:25.940Z,24.98
2022-08-14T10:44:29.732Z,24.83
2022-08-14T10:45:25.812Z,24.92
2022-08-14T10:47:36.563Z,25.27
2022-08-14T10:47:40.111Z,25.24
2022-08-14T10:48:38.386Z,25.11
2022-08-14T10:49:26.643Z,24.84
2022-08-14T10:50:25.621Z,24.55
2022-08-14T10:51:25.630Z,24.29
2022-08-14T10:52:25.639Z,24.18
2022-08-14T10:53:25.593Z,24.42
2022-08-14T10:54:37.237Z,24.94
2022-08-14T10:55:26.581Z,25.08
2022-08-14T10:56:33.975Z,25.12
2022-08-14T10:57:26.548Z,25.22
2022-08-14T10:58:25.582Z,25.19
2022-08-14T10:59:31.050Z,25.48
2022-08-14T11:00:30.288Z,25.60
2022-08-14T11:01:26.505Z,25.69
2022-08-14T11:02:44.993Z,25.66
2022-08-14T11:03:35.760Z,25.60
2022-08-14T11:04:27.810Z,25.54
2022-08-14T11:05:25.478Z,25.93
2022-08-14T11:06:25.565Z,26.16
2022-08-14T11:07:25.442Z,26.21
2022-08-14T11:08:25.429Z,26.00
2022-08-14T11:09:26.454Z,26.11
2022-08-14T11:10:26.444Z,26.28
2022-08-14T11:11:25.410Z,26.09
2022-08-14T11:12:34.730Z,25.49
2022-08-14T11:13:26.380Z,25.81
2022-08-14T11:14:26.503Z,26.03
2022-08-14T11:15:25.362Z,26.17
2022-08-14T11:16:25.376Z,26.31
2022-08-14T11:17:25.353Z,26.12
2022-08-14T11:18:30.171Z,26.19
2022-08-14T11:19:26.326Z,26.34
2022-08-14T11:20:25.304Z,26.35
2022-08-14T11:21:25.295Z,26.31
2022-08-14T11:22:56.483Z,26.06
2022-08-14T11:23:26.378Z,25.98
2022-08-14T11:24:50.540Z,25.94
2022-08-14T11:25:36.902Z,26.00
2022-08-14T11:26:26.242Z,26.04
2022-08-14T11:27:33.515Z,26.17
2022-08-14T11:28:46.881Z,26.31
2022-08-14T11:29:26.921Z,26.04
2022-08-14T11:30:51.588Z,26.17
2022-08-14T11:31:26.186Z,26.21
2022-08-14T11:32:26.174Z,26.09
2022-08-14T11:33:25.170Z,26.06
2022-08-14T11:34:29.828Z,26.12
2022-08-14T11:35:26.150Z,26.29
2022-08-14T11:36:57.163Z,26.06
2022-08-14T11:37:39.368Z,25.91
2022-08-14T11:38:26.111Z,26.01
2022-08-14T11:39:33.793Z,26.38
2022-08-14T11:40:29.251Z,26.39
2022-08-14T11:41:25.087Z,26.54
2022-08-14T11:42:58.562Z,26.54
2022-08-14T11:43:29.563Z,26.51
2022-08-14T11:44:45.794Z,26.56
2022-08-14T11:45:26.048Z,26.42
2022-08-14T11:46:29.850Z,26.11
2022-08-14T11:47:26.027Z,25.89
2022-08-14T11:49:02.562Z,25.56
2022-08-14T11:49:26.006Z,25.82
2022-08-14T11:50:36.276Z,25.86
2022-08-14T11:51:26.003Z,25.96
2022-08-14T11:52:24.978Z,26.03
2022-08-14T11:53:24.986Z,26.17
2022-08-14T11:54:34.372Z,26.31
2022-08-14T11:55:26.347Z,25.93
2022-08-14T11:56:25.737Z,25.85
2022-08-14T11:57:24.913Z,25.79
2022-08-14T11:58:24.901Z,25.41
2022-08-14T11:59:26.406Z,25.35
2022-08-14T12:00:31.859Z,25.23
2022-08-14T12:01:25.869Z,25.12
2022-08-14T12:02:39.134Z,25.23
2022-08-14T12:03:37.325Z,25.45
2022-08-14T12:04:33.277Z,25.51
2022-08-14T12:05:25.823Z,25.66
2022-08-14T12:06:28.588Z,25.60
2022-08-14T12:07:25.804Z,25.74
2022-08-14T12:08:30.214Z,25.72
2022-08-14T12:09:25.783Z,25.78
2022-08-14T12:10:26.056Z,25.74
2022-08-14T12:11:24.787Z,25.66
2022-08-14T12:12:35.080Z,25.54
2022-08-14T12:13:27.320Z,25.54
2022-08-14T12:14:29.881Z,25.63
2022-08-14T12:15:25.730Z,25.63
2022-08-14T12:16:24.710Z,25.38
2022-08-14T12:17:24.708Z,25.42
2022-08-14T12:18:24.816Z,25.35
2022-08-14T12:19:24.689Z,25.30
2022-08-14T12:20:30.149Z,25.45
2022-08-14T12:21:25.757Z,25.56
2022-08-14T12:22:30.347Z,25.46
2022-08-14T12:23:24.707Z,25.59
2022-08-14T12:24:36.283Z,25.41
2022-08-14T12:25:25.616Z,25.51
2022-08-14T12:26:39.025Z,25.63
2022-08-14T12:27:25.601Z,25.72
2022-08-14T12:28:27.216Z,25.64
2022-08-14T12:29:25.594Z,25.64
2022-08-14T12:30:24.594Z,25.64
2022-08-14T12:31:24.556Z,25.91
2022-08-14T12:32:25.557Z,26.27
2022-08-14T12:33:25.331Z,26.36
2022-08-14T12:34:25.368Z,26.81
2022-08-14T12:35:24.531Z,27.13
2022-08-14T12:36:25.223Z,27.39
2022-08-14T12:37:24.514Z,27.55
2022-08-14T12:38:24.492Z,27.61
2022-08-14T12:39:24.506Z,27.61
2022-08-14T12:40:24.459Z,27.38
2022-08-14T12:41:28.192Z,27.42
2022-08-14T12:42:27.441Z,27.48
2022-08-14T12:43:25.568Z,27.23
2022-08-14T12:44:24.446Z,27.31
2022-08-14T12:45:24.419Z,27.49
2022-08-14T12:46:27.129Z,27.80
2022-08-14T12:47:24.491Z,27.86
2022-08-14T12:48:31.680Z,27.65
2022-08-14T12:49:26.001Z,27.69
2022-08-14T12:50:24.545Z,27.80
2022-08-14T12:51:27.096Z,27.81
2022-08-14T12:52:35.987Z,27.71